This is the latest recevied weather packets stored in our database for station/object N0NB. If no packets are shown the sender has not sent any weather packets the latest 10 day(s).
| Time | Temp. | Humidity | Pressure | Rain* | Wind** | Luminosity | Snow |
|---|---|---|---|---|---|---|---|
| 1777783217 | 12.22° C | 47% | 1014.3 hPa | 0 mm | - | 0 W/m² | - |
| 1777782617 | 12.22° C | 47% | 1014.4 hPa | 0 mm | - | 0 W/m² | - |
| 1777782017 | 12.22° C | 47% | 1014.6 hPa | 0 mm | - | 0 W/m² | - |
| 1777781416 | 12.22° C | 46% | 1014.7 hPa | 0 mm | - | 0 W/m² | - |
| 1777780817 | 12.78° C | 45% | 1014.8 hPa | 0 mm | - | 0 W/m² | - |
| 1777780216 | 12.78° C | 45% | 1014.9 hPa | 0 mm | - | 0 W/m² | - |
| 1777779616 | 12.78° C | 44% | 1015 hPa | 0 mm | - | 0 W/m² | - |
| 1777779016 | 12.78° C | 43% | 1015.1 hPa | 0 mm | - | 0 W/m² | - |
| 1777778416 | 12.78° C | 44% | 1015.2 hPa | 0 mm | - | 0 W/m² | - |
| 1777777816 | 12.78° C | 43% | 1015.3 hPa | 0 mm | - | 0 W/m² | - |
| 1777777216 | 12.78° C | 43% | 1015.3 hPa | 0 mm | - | 0 W/m² | - |
| 1777776616 | 12.78° C | 43% | 1015.3 hPa | 0 mm | - | 0 W/m² | - |
| 1777776016 | 12.78° C | 43% | 1015.4 hPa | 0 mm | - | 0 W/m² | - |
| 1777775416 | 12.78° C | 42% | 1015.4 hPa | 0 mm | - | 0 W/m² | - |
| 1777774816 | 12.78° C | 42% | 1015.2 hPa | 0 mm | - | 0 W/m² | - |
| 1777774216 | 12.78° C | 41% | 1015.3 hPa | 0 mm | - | 0 W/m² | - |
| 1777773616 | 13.33° C | 40% | 1015.3 hPa | 0 mm | - | 0 W/m² | - |
| 1777773016 | 13.89° C | 40% | 1015.2 hPa | 0 mm | - | 0 W/m² | - |
| 1777772416 | 13.89° C | 39% | 1015.2 hPa | 0 mm | - | 0 W/m² | - |
| 1777771816 | 14.44° C | 38% | 1015.3 hPa | 0 mm | - | 0 W/m² | - |
| 1777771216 | 15.56° C | 37% | 1015.2 hPa | 0 mm | - | 7 W/m² | - |
| 1777770616 | 16.11° C | 36% | 1015.2 hPa | 0 mm | - | 13 W/m² | - |
| 1777770016 | 16.67° C | 35% | 1015.2 hPa | 0 mm | - | 21 W/m² | - |
| 1777769416 | 17.22° C | 34% | 1015.1 hPa | 0 mm | - | 40 W/m² | - |
| 1777768816 | 17.78° C | 34% | 1015.2 hPa | 0 mm | - | 63 W/m² | - |
* Rain latest hour (hover to see other rain measurements)
** Current wind speed in m/s (hover to see current wind gust speed)